createdAt,value
2022-12-15T02:39:05.737Z,-3.68
2022-12-15T02:41:36.963Z,-3.75
2022-12-15T02:51:44.508Z,-3.67
2022-12-15T02:54:10.882Z,-3.69
2022-12-15T02:56:43.349Z,-3.67
2022-12-15T02:59:12.948Z,-3.73
2022-12-15T03:02:00.553Z,-3.78
2022-12-15T03:04:27.460Z,-3.79
2022-12-15T03:07:00.813Z,-3.85
2022-12-15T03:09:28.037Z,-3.80
2022-12-15T03:11:54.735Z,-3.83
2022-12-15T03:14:21.325Z,-3.84
2022-12-15T03:16:47.854Z,-3.78
2022-12-15T03:19:14.324Z,-3.79
2022-12-15T03:21:40.839Z,-3.83
2022-12-15T03:24:07.745Z,-3.92
2022-12-15T03:26:34.784Z,-3.90
2022-12-15T03:29:01.387Z,-3.89
2022-12-15T03:31:27.921Z,-3.90
2022-12-15T03:33:55.393Z,-3.97
2022-12-15T03:36:22.929Z,-4.00
2022-12-15T03:38:49.431Z,-3.98
2022-12-15T03:41:17.892Z,-3.96
2022-12-15T03:43:46.667Z,-4.04
2022-12-15T03:46:16.533Z,-3.99
2022-12-15T03:48:43.058Z,-3.96
2022-12-15T03:51:09.500Z,-3.99
2022-12-15T03:53:35.915Z,-3.99
2022-12-15T03:56:02.319Z,-4.01
2022-12-15T03:58:28.650Z,-4.20
2022-12-15T04:00:55.308Z,-4.17
2022-12-15T04:03:22.040Z,-4.18
2022-12-15T04:05:48.652Z,-4.25
2022-12-15T04:08:15.188Z,-4.25
2022-12-15T04:10:41.598Z,-4.25
2022-12-15T04:13:09.700Z,-4.23
2022-12-15T04:15:37.699Z,-4.23
2022-12-15T04:18:05.130Z,-4.22
2022-12-15T04:20:33.101Z,-4.17
2022-12-15T04:23:00.307Z,-4.17
2022-12-15T04:25:45.584Z,-4.35
2022-12-15T04:28:30.833Z,-4.24
2022-12-15T04:31:17.429Z,-4.21
2022-12-15T04:34:05.052Z,-4.21
2022-12-15T04:36:52.977Z,-4.22
2022-12-15T04:39:38.159Z,-4.37
2022-12-15T04:42:23.791Z,-4.44
2022-12-15T04:45:15.502Z,-4.34
2022-12-15T04:48:03.921Z,-4.27
2022-12-15T04:50:49.973Z,-4.34
2022-12-15T04:53:44.260Z,-4.37
2022-12-15T04:56:33.858Z,-4.37
2022-12-15T06:15:26.119Z,-4.36
2022-12-15T06:25:23.702Z,-4.18
2022-12-15T06:28:26.009Z,-4.12
2022-12-15T06:31:05.094Z,-4.05
2022-12-15T07:40:56.411Z,-2.99
2022-12-15T07:43:48.252Z,-2.93
2022-12-15T07:46:39.568Z,-2.72
2022-12-15T07:49:31.439Z,-2.70
2022-12-15T07:58:21.678Z,-2.62
2022-12-15T08:01:03.524Z,-2.58
2022-12-15T08:03:31.427Z,-2.60
2022-12-15T08:09:44.805Z,-2.41
2022-12-15T08:12:26.577Z,-2.39
2022-12-15T08:14:56.802Z,-2.30
2022-12-15T08:17:26.702Z,-2.28
2022-12-15T08:19:58.927Z,-2.21
2022-12-15T08:22:25.717Z,-2.19
2022-12-15T08:24:52.211Z,-2.15
2022-12-15T08:30:05.167Z,-2.01
2022-12-15T08:32:31.668Z,-1.97
2022-12-15T08:34:58.053Z,-1.99
2022-12-15T09:54:50.340Z,-1.42
2022-12-15T10:05:33.644Z,-1.28
2022-12-15T10:08:30.434Z,-1.40
2022-12-15T10:11:13.520Z,-1.47
2022-12-15T10:19:29.234Z,-1.33
2022-12-15T10:22:01.300Z,-1.25
2022-12-15T10:38:38.366Z,-1.08
2022-12-15T10:41:14.655Z,-1.06
2022-12-15T10:43:51.033Z,-1.06
2022-12-15T18:49:30.745Z,-2.82
2022-12-15T18:51:57.263Z,-2.87
2022-12-15T18:54:24.236Z,-2.86
2022-12-15T18:56:50.592Z,-2.81
2022-12-15T18:59:18.547Z,-2.79
2022-12-15T19:01:45.847Z,-2.90
2022-12-15T19:04:12.364Z,-2.85
2022-12-15T19:06:40.236Z,-2.86
2022-12-15T19:09:12.160Z,-2.81
2022-12-15T19:12:01.547Z,-2.81
2022-12-15T19:14:40.116Z,-2.74
2022-12-15T19:17:40.933Z,-2.77
2022-12-15T19:20:36.758Z,-2.93
2022-12-15T19:23:03.428Z,-3.09
2022-12-15T19:25:29.945Z,-2.94
2022-12-15T19:28:00.672Z,-2.85
2022-12-15T19:30:28.843Z,-2.82
2022-12-15T19:32:55.500Z,-3.18
2022-12-15T19:35:22.003Z,-2.92
2022-12-15T19:37:49.705Z,-3.01
2022-12-15T19:40:27.780Z,-2.90
2022-12-15T19:42:55.416Z,-2.88
2022-12-15T19:45:26.550Z,-2.93
2022-12-15T19:47:53.047Z,-2.96
2022-12-15T19:50:23.990Z,-2.94
2022-12-15T19:52:53.078Z,-2.90
2022-12-15T19:55:23.472Z,-2.95
2022-12-15T19:57:50.137Z,-3.00
2022-12-15T20:00:17.443Z,-2.99
2022-12-15T20:02:44.626Z,-2.95
2022-12-15T20:05:13.601Z,-2.95
2022-12-15T20:07:40.425Z,-2.97
2022-12-15T20:10:24.631Z,-2.87
2022-12-15T22:38:52.199Z,-3.03
2022-12-15T22:41:20.491Z,-3.07
2022-12-15T22:43:50.068Z,-3.10
2022-12-15T22:46:16.759Z,-3.06
2022-12-15T22:48:44.653Z,-3.00
2022-12-15T22:51:12.640Z,-3.04
2022-12-15T22:53:39.112Z,-2.98
2022-12-15T22:56:21.069Z,-3.03
2022-12-15T22:58:49.576Z,-2.95
2022-12-15T23:01:21.593Z,-2.92
2022-12-15T23:03:51.801Z,-2.97
2022-12-15T23:06:18.769Z,-2.98
2022-12-15T23:08:45.214Z,-2.93
2022-12-15T23:11:30.360Z,-3.00
2022-12-15T23:13:57.108Z,-3.08
2022-12-15T23:16:23.958Z,-3.12
2022-12-15T23:18:54.911Z,-3.07
2022-12-15T23:21:22.333Z,-3.10
2022-12-15T23:23:48.808Z,-3.11
2022-12-15T23:26:16.315Z,-3.11
2022-12-15T23:28:43.382Z,-3.09
2022-12-15T23:31:10.073Z,-3.05
2022-12-15T23:33:36.649Z,-3.08
2022-12-15T23:36:03.169Z,-3.09
2022-12-15T23:38:29.624Z,-3.11
2022-12-15T23:40:56.521Z,-3.14
2022-12-15T23:43:23.988Z,-3.26
2022-12-15T23:45:58.042Z,-3.24
2022-12-15T23:48:24.883Z,-3.27
2022-12-15T23:50:51.340Z,-3.22
2022-12-15T23:53:18.305Z,-3.21
2022-12-15T23:55:44.732Z,-3.25
2022-12-15T23:58:11.084Z,-3.30
